Time;durP1;ratioP1;P1;durP2;ratioP2;P2;SDS_P1;SDS_P2;PMS_P1;PMS_P2;Temp;Humidity;BMP_temperature;BMP_pressure;BME280_temperature;BME280_humidity;BME280_pressure;Samples;Min_cycle;Max_cycle;Signal;HPM_P1;HPM_P2
2022/12/27 00:01:48;;;;;;;4.70;4.38;;;5.60;99.90;;;;;;5063905;28;20720;-72
2022/12/27 00:04:15;;;;;;;5.07;4.68;;;5.60;99.90;;;;;;5062899;28;20218;-73
2022/12/27 00:06:43;;;;;;;4.63;4.22;;;5.50;99.90;;;;;;5060539;28;20210;-72
2022/12/27 00:09:11;;;;;;;4.68;4.38;;;5.50;99.90;;;;;;5066903;28;20225;-73
2022/12/27 00:11:39;;;;;;;3.95;3.70;;;5.50;99.90;;;;;;5061645;28;20727;-72
2022/12/27 00:14:07;;;;;;;4.03;3.72;;;5.50;99.90;;;;;;5047093;28;20222;-72
2022/12/27 00:16:35;;;;;;;4.93;4.43;;;5.50;99.90;;;;;;5063213;28;20198;-71
2022/12/27 00:19:04;;;;;;;4.80;4.40;;;5.40;99.90;;;;;;5056437;28;20708;-73
2022/12/27 00:21:32;;;;;;;4.45;4.15;;;5.30;99.90;;;;;;5056812;28;20214;-74
2022/12/27 00:24:00;;;;;;;4.95;4.55;;;5.30;99.90;;;;;;5065918;28;20234;-74
2022/12/27 00:26:29;;;;;;;4.85;4.55;;;5.20;99.90;;;;;;5080556;28;20202;-73
2022/12/27 00:28:57;;;;;;;4.55;4.25;;;5.20;99.90;;;;;;5044270;28;20225;-73
2022/12/27 00:31:26;;;;;;;5.07;4.68;;;5.10;99.90;;;;;;5060334;28;20579;-73
2022/12/27 00:33:54;;;;;;;4.85;4.55;;;5.10;99.90;;;;;;5064669;28;20217;-73
2022/12/27 00:36:26;;;;;;;4.90;4.53;;;5.10;99.90;;;;;;5063794;28;20199;-73
2022/12/27 00:38:54;;;;;;;4.65;4.35;;;5.10;99.90;;;;;;5063483;28;20218;-74
2022/12/27 00:41:21;;;;;;;4.68;4.38;;;5.00;99.90;;;;;;5060213;28;20269;-72
2022/12/27 00:43:49;;;;;;;5.40;5.00;;;5.00;99.90;;;;;;5060931;28;20233;-73
2022/12/27 00:46:17;;;;;;;4.65;4.25;;;5.00;99.90;;;;;;5046558;28;20218;-74
2022/12/27 00:48:45;;;;;;;4.40;4.10;;;5.00;99.90;;;;;;5059742;28;20230;-73
2022/12/27 00:51:15;;;;;;;4.55;4.20;;;5.00;99.90;;;;;;5063630;28;20190;-73
2022/12/27 00:53:44;;;;;;;4.32;3.92;;;5.00;99.90;;;;;;5042852;28;20226;-72
2022/12/27 00:56:14;;;;;;;4.45;4.15;;;5.00;99.90;;;;;;5058834;28;20654;-73
2022/12/27 00:58:42;;;;;;;4.78;4.47;;;5.00;99.90;;;;;;5057797;28;20591;-72
2022/12/27 01:01:11;;;;;;;4.93;4.53;;;4.90;99.90;;;;;;5060607;28;20198;-72
2022/12/27 01:03:39;;;;;;;4.80;4.40;;;5.00;99.90;;;;;;5058048;28;20226;-73
2022/12/27 01:06:07;;;;;;;4.68;4.30;;;5.00;99.90;;;;;;5061003;28;20231;-72
2022/12/27 01:08:36;;;;;;;5.20;4.80;;;5.00;99.90;;;;;;5057304;28;20660;-73
2022/12/27 01:11:06;;;;;;;5.03;4.63;;;5.00;99.90;;;;;;5042429;28;20223;-73
2022/12/27 01:13:34;;;;;;;5.40;5.00;;;4.90;99.90;;;;;;5042740;28;20217;-72
2022/12/27 01:16:02;;;;;;;4.65;4.35;;;5.00;99.90;;;;;;5041920;28;20244;-75
2022/12/27 01:18:29;;;;;;;4.40;4.10;;;5.00;99.90;;;;;;5031161;28;20202;-73
2022/12/27 01:20:56;;;;;;;4.55;4.25;;;5.00;99.90;;;;;;5047585;28;20255;-74
2022/12/27 01:23:25;;;;;;;5.15;4.75;;;5.00;99.90;;;;;;5062499;28;20471;-73
2022/12/27 01:26:00;;;;;;;4.93;4.53;;;5.00;99.90;;;;;;5061530;28;20191;-72
2022/12/27 01:28:29;;;;;;;5.40;5.00;;;5.00;99.90;;;;;;5046277;28;20191;-73
2022/12/27 01:30:56;;;;;;;4.93;4.53;;;5.00;99.90;;;;;;5064906;28;20213;-73
2022/12/27 01:33:24;;;;;;;5.35;4.95;;;5.00;99.90;;;;;;5058913;28;20226;-72
2022/12/27 01:35:51;;;;;;;4.93;4.53;;;5.00;99.90;;;;;;5064284;28;20208;-73
2022/12/27 01:38:18;;;;;;;5.30;4.90;;;5.00;99.90;;;;;;5046064;28;20714;-73
2022/12/27 01:40:46;;;;;;;5.97;5.47;;;5.00;99.90;;;;;;5071064;28;20190;-73
2022/12/27 01:43:16;;;;;;;5.03;4.63;;;5.00;99.90;;;;;;5062520;28;20647;-72
2022/12/27 01:45:47;;;;;;;5.55;5.05;;;4.90;99.90;;;;;;5064461;28;20218;-72
2022/12/27 01:48:18;;;;;;;4.88;4.47;;;4.90;99.90;;;;;;5059657;28;20214;-72
2022/12/27 01:50:49;;;;;;;4.57;4.28;;;4.90;99.90;;;;;;5063408;28;20215;-72
2022/12/27 01:53:20;;;;;;;4.57;4.28;;;4.90;99.90;;;;;;5055957;28;20620;-73
2022/12/27 01:55:50;;;;;;;5.50;5.05;;;4.90;99.90;;;;;;5060158;28;20191;-72
2022/12/27 01:58:24;;;;;;;6.68;6.00;;;4.90;99.90;;;;;;5059007;28;20259;-73
2022/12/27 02:00:54;;;;;;;6.25;5.65;;;4.90;99.90;;;;;;5064641;28;20194;-73
2022/12/27 02:03:25;;;;;;;5.57;5.18;;;4.90;99.90;;;;;;5062281;28;20217;-73
2022/12/27 02:05:53;;;;;;;5.38;4.97;;;5.00;99.90;;;;;;5061353;28;20247;-73
2022/12/27 02:08:33;;;;;;;5.15;4.75;;;5.00;99.90;;;;;;5064416;28;20218;-72
2022/12/27 02:11:02;;;;;;;4.80;4.43;;;5.00;99.90;;;;;;5062690;28;20201;-73
2022/12/27 02:13:32;;;;;;;4.72;4.43;;;5.00;99.90;;;;;;5059193;28;20221;-73
2022/12/27 02:16:02;;;;;;;4.85;4.47;;;4.90;99.90;;;;;;5060426;28;20195;-72
2022/12/27 02:18:30;;;;;;;4.85;4.45;;;4.90;99.90;;;;;;5062050;28;20619;-73
2022/12/27 02:21:18;;;;;;;5.28;4.88;;;4.90;99.90;;;;;;5063358;28;20264;-73
2022/12/27 02:24:11;;;;;;;4.47;4.18;;;4.90;99.90;;;;;;5064392;28;20643;-75
2022/12/27 02:26:52;;;;;;;4.90;4.60;;;4.90;99.90;;;;;;5057507;28;20714;-73
2022/12/27 02:29:49;;;;;;;4.25;4.05;;;4.90;99.90;;;;;;5058431;28;20312;-72
2022/12/27 02:32:25;;;;;;;3.97;3.67;;;4.90;99.90;;;;;;5064048;28;20197;-73
2022/12/27 02:35:00;;;;;;;5.22;4.88;;;4.90;99.90;;;;;;5061645;28;20226;-73
2022/12/27 02:37:31;;;;;;;5.00;4.60;;;4.80;99.90;;;;;;5064042;28;20251;-74
2022/12/27 02:53:02;;;;;;;4.85;4.55;;;4.80;99.90;;;;;;5065733;28;20245;-73
2022/12/27 02:54:21;;;;;;;5.07;4.68;;;4.60;99.90;;;;;;5062650;28;20259;-73
2022/12/27 02:57:11;;;;;;;5.53;5.13;;;4.50;99.90;;;;;;5078735;28;20280;-75
2022/12/27 03:08:51;;;;;;;5.35;4.93;;;4.50;99.90;;;;;;5062856;28;20217;-75
2022/12/27 03:17:05;;;;;;;5.32;4.93;;;4.70;99.90;;;;;;5065392;28;20200;-75
2022/12/27 03:25:28;;;;;;;5.18;4.53;;;4.80;99.90;;;;;;5062206;28;20287;-74
2022/12/27 03:33:39;;;;;;;3.63;3.33;;;5.00;99.90;;;;;;5006462;28;20763;-71
2022/12/27 03:39:06;;;;;;;3.70;3.50;;;5.10;99.90;;;;;;5065530;28;20236;-74
2022/12/27 03:44:26;;;;;;;4.03;3.72;;;5.10;99.90;;;;;;5063852;28;20229;-72
2022/12/27 03:46:56;;;;;;;4.35;4.03;;;5.00;99.90;;;;;;5061274;28;20223;-75
2022/12/27 03:49:30;;;;;;;4.75;4.35;;;5.00;99.90;;;;;;5064213;28;20285;-74
2022/12/27 03:52:05;;;;;;;4.10;3.80;;;5.00;99.90;;;;;;5062590;28;20679;-76
2022/12/27 03:54:37;;;;;;;5.13;4.72;;;4.90;99.90;;;;;;5062968;28;20228;-72
2022/12/27 03:57:10;;;;;;;4.82;4.43;;;4.90;99.90;;;;;;5044537;28;20203;-73
2022/12/27 03:59:37;;;;;;;4.65;4.35;;;4.90;99.90;;;;;;5061202;28;20569;-73
2022/12/27 04:02:06;;;;;;;5.07;4.68;;;4.90;99.90;;;;;;5059811;28;20194;-72
2022/12/27 04:04:33;;;;;;;4.80;4.50;;;4.90;99.90;;;;;;5062272;28;20609;-73
2022/12/27 04:07:01;;;;;;;5.07;4.68;;;4.80;99.90;;;;;;5047868;28;20238;-74
2022/12/27 04:36:57;;;;;;;4.95;4.65;;;4.60;99.90;;;;;;5062797;28;20233;-73
2022/12/27 04:39:24;;;;;;;4.68;4.30;;;4.50;99.90;;;;;;5066889;28;20225;-74
2022/12/27 04:55:54;;;;;;;4.28;3.88;;;4.40;99.90;;;;;;5063538;28;20310;-74
2022/12/27 04:58:21;;;;;;;4.22;4.00;;;4.30;99.90;;;;;;5041968;28;20684;-74
2022/12/27 05:03:35;;;;;;;5.05;4.70;;;4.30;99.90;;;;;;5063305;28;20349;-75
2022/12/27 05:06:03;;;;;;;4.25;3.95;;;4.30;99.90;;;;;;5060581;28;20199;-74
2022/12/27 05:14:03;;;;;;;4.28;3.97;;;4.30;99.90;;;;;;5053382;28;20221;-74
2022/12/27 05:16:35;;;;;;;3.65;3.45;;;4.30;99.90;;;;;;5063726;28;20203;-73
2022/12/27 05:19:03;;;;;;;4.13;3.88;;;4.30;99.90;;;;;;5057299;28;21173;-74
2022/12/27 05:21:31;;;;;;;4.60;4.30;;;4.30;99.90;;;;;;5063215;28;20217;-75
2022/12/27 05:26:44;;;;;;;4.40;4.10;;;4.40;99.90;;;;;;5064258;28;20248;-74
2022/12/27 05:29:11;;;;;;;5.32;4.90;;;4.40;99.90;;;;;;5068629;28;20226;-75
2022/12/27 05:31:40;;;;;;;5.32;4.93;;;4.30;99.90;;;;;;5063028;28;20593;-74
2022/12/27 05:34:07;;;;;;;5.60;5.20;;;4.30;99.90;;;;;;5056241;28;20249;-73
2022/12/27 05:36:34;;;;;;;5.35;4.95;;;4.30;99.90;;;;;;5062296;28;20202;-74
2022/12/27 05:39:02;;;;;;;5.13;4.63;;;4.30;99.90;;;;;;5059565;28;20230;-76
2022/12/27 05:41:29;;;;;;;4.85;4.50;;;4.30;99.90;;;;;;5062744;28;20285;-76
2022/12/27 05:43:58;;;;;;;5.68;5.25;;;4.20;99.90;;;;;;5043230;28;20683;-76
2022/12/27 05:46:28;;;;;;;4.97;4.68;;;4.20;99.90;;;;;;5059657;28;20202;-78
2022/12/27 05:48:57;;;;;;;5.00;4.60;;;4.20;99.90;;;;;;5061895;28;20780;-75
2022/12/27 05:51:25;;;;;;;4.35;4.05;;;4.20;99.90;;;;;;5042286;28;20195;-76
2022/12/27 05:53:52;;;;;;;4.97;4.57;;;4.20;99.90;;;;;;5063464;28;20223;-79
2022/12/27 05:56:21;;;;;;;4.85;4.45;;;4.20;99.90;;;;;;5046299;28;20194;-74
2022/12/27 05:58:48;;;;;;;5.38;5.00;;;4.20;99.90;;;;;;5064030;28;20236;-74
2022/12/27 06:01:20;;;;;;;5.18;4.78;;;4.10;99.90;;;;;;5065455;28;20198;-78
2022/12/27 06:03:47;;;;;;;5.22;4.72;;;4.10;99.90;;;;;;5064513;28;20218;-80
2022/12/27 06:06:16;;;;;;;4.28;3.97;;;4.10;99.90;;;;;;5063187;28;20193;-77
2022/12/27 06:08:43;;;;;;;4.82;4.53;;;4.00;99.90;;;;;;5055858;28;20230;-81
2022/12/27 06:11:12;;;;;;;4.68;4.38;;;4.00;99.90;;;;;;5069043;28;20202;-79
2022/12/27 06:13:41;;;;;;;3.90;3.67;;;4.10;99.90;;;;;;5051838;28;20649;-81
2022/12/27 06:16:11;;;;;;;5.03;4.63;;;4.10;99.90;;;;;;5068929;28;20198;-77
2022/12/27 06:18:39;;;;;;;4.45;4.15;;;4.20;99.90;;;;;;5064394;28;20267;-73
2022/12/27 06:21:09;;;;;;;3.90;3.63;;;4.20;99.90;;;;;;5046260;28;20210;-78
2022/12/27 06:23:40;;;;;;;5.00;4.60;;;4.20;99.90;;;;;;5051996;28;20249;-77
2022/12/27 06:26:08;;;;;;;4.78;4.40;;;4.20;99.90;;;;;;5070337;28;20203;-74
2022/12/27 06:28:35;;;;;;;4.53;4.22;;;4.20;99.90;;;;;;5065318;28;20340;-76
2022/12/27 06:31:03;;;;;;;4.30;4.00;;;4.20;99.90;;;;;;5065204;28;20194;-75
2022/12/27 06:33:31;;;;;;;4.15;3.85;;;4.20;99.90;;;;;;5066159;28;20222;-77
2022/12/27 06:35:59;;;;;;;4.22;3.92;;;4.20;99.90;;;;;;5066708;28;20692;-77
2022/12/27 06:38:27;;;;;;;4.38;4.07;;;4.20;99.90;;;;;;5068954;28;20194;-77
2022/12/27 06:41:01;;;;;;;3.83;3.63;;;4.20;99.90;;;;;;5063948;28;20717;-80
2022/12/27 06:43:28;;;;;;;4.90;4.53;;;4.20;99.90;;;;;;5071168;28;20219;-76
2022/12/27 06:45:56;;;;;;;5.38;4.95;;;4.20;99.90;;;;;;5048508;28;20293;-77
2022/12/27 06:48:25;;;;;;;4.97;4.60;;;4.10;99.90;;;;;;5061431;28;20746;-77
2022/12/27 06:50:53;;;;;;;5.18;4.78;;;4.20;99.90;;;;;;5065329;28;20267;-73
2022/12/27 06:53:20;;;;;;;4.85;4.47;;;4.20;99.90;;;;;;5062172;28;20222;-74
2022/12/27 06:55:48;;;;;;;4.18;3.97;;;4.20;99.90;;;;;;5045296;28;20194;-79
2022/12/27 06:58:18;;;;;;;4.38;4.05;;;4.20;99.90;;;;;;5065736;28;20194;-76
2022/12/27 07:00:46;;;;;;;5.03;4.72;;;4.20;99.90;;;;;;5062742;28;20194;-74
2022/12/27 07:03:13;;;;;;;4.70;4.40;;;4.20;99.90;;;;;;5061949;28;20222;-75
2022/12/27 07:05:40;;;;;;;4.40;4.10;;;4.20;99.90;;;;;;5059719;28;20408;-74
2022/12/27 07:08:09;;;;;;;4.10;3.85;;;4.20;99.90;;;;;;5064522;28;20251;-75
2022/12/27 07:10:38;;;;;;;5.28;4.90;;;4.20;99.90;;;;;;5061136;28;20218;-73
2022/12/27 07:13:06;;;;;;;4.75;4.45;;;4.30;99.90;;;;;;5060202;28;20218;-73
2022/12/27 07:15:35;;;;;;;6.13;5.55;;;4.30;99.90;;;;;;5063809;28;20483;-73
2022/12/27 07:18:02;;;;;;;4.60;4.30;;;4.40;99.90;;;;;;5057328;28;20197;-75
2022/12/27 07:20:30;;;;;;;5.13;4.78;;;4.50;99.90;;;;;;5058371;28;20219;-78
2022/12/27 07:22:58;;;;;;;5.35;4.95;;;4.50;99.90;;;;;;5061878;28;20203;-74
2022/12/27 07:25:26;;;;;;;5.15;4.75;;;4.50;99.90;;;;;;5065672;28;21003;-76
2022/12/27 07:27:54;;;;;;;4.72;4.43;;;4.50;99.90;;;;;;5061559;28;20230;-78
2022/12/27 07:30:22;;;;;;;5.03;4.72;;;4.40;99.90;;;;;;5063063;28;20852;-78
2022/12/27 07:32:51;;;;;;;4.65;4.32;;;4.40;99.90;;;;;;5064256;28;20194;-74
2022/12/27 07:35:19;;;;;;;4.60;4.30;;;4.50;99.90;;;;;;5059588;28;20218;-76
2022/12/27 07:37:46;;;;;;;5.80;5.40;;;4.50;99.90;;;;;;5042952;28;20195;-73
2022/12/27 07:40:15;;;;;;;5.05;4.65;;;4.50;99.90;;;;;;5045653;28;20223;-73
2022/12/27 07:42:42;;;;;;;5.30;4.90;;;4.60;99.90;;;;;;5068223;28;20206;-75
2022/12/27 07:45:10;;;;;;;5.05;4.65;;;4.60;99.90;;;;;;5060691;28;20229;-74
2022/12/27 07:47:37;;;;;;;5.80;5.38;;;4.70;99.90;;;;;;5058109;28;20199;-72
2022/12/27 07:50:07;;;;;;;5.43;4.93;;;4.80;99.90;;;;;;5046226;28;20221;-74
2022/12/27 07:52:35;;;;;;;5.32;4.93;;;4.80;99.90;;;;;;5054627;28;20221;-76
2022/12/27 07:55:02;;;;;;;5.30;4.90;;;4.90;99.90;;;;;;5060094;28;20237;-73
2022/12/27 07:57:30;;;;;;;5.07;4.57;;;4.90;99.90;;;;;;5066434;28;20194;-74
2022/12/27 07:59:57;;;;;;;5.20;4.70;;;4.90;99.90;;;;;;5066642;28;20221;-73
2022/12/27 08:02:25;;;;;;;5.32;4.93;;;4.90;99.90;;;;;;5061170;28;20202;-75
2022/12/27 08:04:53;;;;;;;5.93;5.43;;;4.90;99.90;;;;;;5062766;28;20218;-74
2022/12/27 08:07:23;;;;;;;5.70;5.20;;;5.00;99.90;;;;;;5060164;28;20853;-74
2022/12/27 08:09:50;;;;;;;6.00;5.50;;;5.00;99.90;;;;;;5043707;28;20641;-74
2022/12/27 08:12:18;;;;;;;5.45;5.05;;;5.00;99.90;;;;;;5027004;28;20239;-74
2022/12/27 08:14:45;;;;;;;5.13;4.72;;;5.10;99.90;;;;;;5059311;28;20218;-75
2022/12/27 08:17:15;;;;;;;5.00;4.60;;;5.20;99.90;;;;;;5063350;28;20505;-76
2022/12/27 08:19:43;;;;;;;5.40;4.97;;;5.30;99.90;;;;;;5060940;28;20218;-76
2022/12/27 08:22:10;;;;;;;5.88;5.38;;;5.60;99.90;;;;;;5042629;28;20256;-75
2022/12/27 08:24:41;;;;;;;5.88;5.38;;;6.40;99.90;;;;;;5064362;28;20922;-75
2022/12/27 08:27:08;;;;;;;7.80;6.35;;;7.20;99.90;;;;;;5056833;28;20248;-75
2022/12/27 08:29:36;;;;;;;7.60;6.90;;;8.00;99.90;;;;;;5059755;28;20238;-74
2022/12/27 08:32:04;;;;;;;7.00;6.35;;;8.50;99.90;;;;;;5043674;28;20206;-74
2022/12/27 08:34:31;;;;;;;7.25;6.65;;;9.00;99.90;;;;;;5058601;28;20230;-76
2022/12/27 08:36:59;;;;;;;7.05;6.32;;;9.40;99.90;;;;;;5046638;28;20203;-75
2022/12/27 08:39:28;;;;;;;7.03;6.43;;;9.90;99.90;;;;;;5023959;28;20214;-75
2022/12/27 08:41:57;;;;;;;7.63;6.93;;;10.20;99.90;;;;;;5060303;28;20197;-75
2022/12/27 08:44:26;;;;;;;7.47;6.68;;;10.60;99.90;;;;;;5062389;28;20250;-76
2022/12/27 08:46:53;;;;;;;7.82;6.93;;;10.90;99.90;;;;;;5056364;28;20660;-78
2022/12/27 08:49:21;;;;;;;7.10;6.50;;;11.20;99.90;;;;;;5058749;28;20229;-77
2022/12/27 08:51:48;;;;;;;7.20;6.60;;;11.70;99.90;;;;;;5058250;28;20198;-83
2022/12/27 08:54:15;;;;;;;7.00;6.40;;;11.90;99.90;;;;;;5060998;28;20267;-82
2022/12/27 08:56:43;;;;;;;7.40;6.70;;;12.40;99.90;;;;;;5058379;28;20214;-76
2022/12/27 08:59:12;;;;;;;8.20;6.68;;;13.00;99.90;;;;;;5059732;28;20225;-78
2022/12/27 09:01:39;;;;;;;7.95;7.15;;;13.40;99.90;;;;;;5043242;28;20945;-75
2022/12/27 09:04:06;;;;;;;7.57;6.88;;;14.10;99.90;;;;;;5063587;28;20585;-76
2022/12/27 09:06:34;;;;;;;6.65;6.05;;;14.50;99.90;;;;;;5064179;28;20255;-73
2022/12/27 09:09:01;;;;;;;6.75;6.15;;;14.90;99.90;;;;;;5060276;28;20230;-74
2022/12/27 09:11:30;;;;;;;6.43;5.82;;;15.40;99.90;;;;;;5063086;28;20202;-75
2022/12/27 09:14:00;;;;;;;6.40;5.80;;;15.90;99.90;;;;;;5059117;28;20226;-74
2022/12/27 09:16:29;;;;;;;6.18;5.57;;;16.60;99.90;;;;;;5064368;28;20280;-74
2022/12/27 09:18:58;;;;;;;5.47;4.97;;;17.00;99.90;;;;;;5045323;28;20764;-75
2022/12/27 09:21:28;;;;;;;5.75;5.25;;;17.30;99.90;;;;;;5060379;28;20275;-74
2022/12/27 09:23:56;;;;;;;4.85;4.45;;;17.70;99.90;;;;;;5061471;28;20221;-75
2022/12/27 09:26:25;;;;;;;6.60;5.03;;;17.80;99.90;;;;;;5067128;28;20655;-74
2022/12/27 09:28:53;;;;;;;5.93;5.38;;;18.20;99.90;;;;;;5065511;28;20236;-77
2022/12/27 09:31:21;;;;;;;6.25;5.65;;;18.40;99.90;;;;;;5053382;28;21052;-75
2022/12/27 09:33:50;;;;;;;5.93;5.20;;;18.50;99.90;;;;;;5071801;28;20228;-73
2022/12/27 09:36:20;;;;;;;6.50;5.90;;;18.90;99.90;;;;;;5066213;28;20299;-82
2022/12/27 09:38:48;;;;;;;6.70;6.10;;;19.50;99.90;;;;;;5066739;28;20221;-83
2022/12/27 09:41:21;;;;;;;6.35;5.75;;;20.40;99.90;;;;;;5064479;28;20201;-78
2022/12/27 09:43:58;;;;;;;6.97;5.68;;;21.00;99.90;;;;;;5065017;28;20649;-77
2022/12/27 09:46:31;;;;;;;6.72;6.13;;;20.90;99.90;;;;;;5046802;28;20223;-76
2022/12/27 09:49:00;;;;;;;7.22;5.90;;;20.40;99.90;;;;;;5058125;28;20214;-76
2022/12/27 09:51:33;;;;;;;6.40;5.68;;;19.70;99.90;;;;;;5065860;28;20198;-76
2022/12/27 09:54:03;;;;;;;6.22;5.70;;;18.90;99.90;;;;;;5066985;28;20222;-82
2022/12/27 09:56:35;;;;;;;5.97;5.47;;;18.20;99.90;;;;;;5059700;28;20726;-77
2022/12/27 09:59:09;;;;;;;6.13;5.53;;;17.50;99.90;;;;;;5063431;28;20221;-79
2022/12/27 10:01:39;;;;;;;6.47;5.88;;;17.10;99.90;;;;;;5060369;28;20206;-78
2022/12/27 10:04:13;;;;;;;6.72;6.10;;;16.90;99.90;;;;;;5060764;28;20388;-72
2022/12/27 10:07:07;;;;;;;6.55;5.95;;;16.80;99.90;;;;;;5061765;28;20205;-74
2022/12/27 10:09:51;;;;;;;7.28;6.57;;;16.40;99.90;;;;;;5061098;28;20214;-77
2022/12/27 10:12:32;;;;;;;7.15;6.45;;;16.00;99.90;;;;;;5063686;28;20617;-77
2022/12/27 10:15:11;;;;;;;8.32;6.13;;;15.50;99.90;;;;;;5065037;28;20230;-76
2022/12/27 10:17:57;;;;;;;6.88;6.28;;;15.40;99.90;;;;;;5065221;28;20195;-76
2022/12/27 10:20:36;;;;;;;6.93;6.28;;;15.30;99.90;;;;;;5066033;28;20213;-77
2022/12/27 10:23:05;;;;;;;6.38;5.85;;;15.20;99.90;;;;;;5064236;28;20229;-77
2022/12/27 10:25:35;;;;;;;6.15;5.65;;;15.10;99.90;;;;;;5065122;28;20221;-76
2022/12/27 10:28:13;;;;;;;6.03;5.53;;;15.10;99.90;;;;;;5071052;28;20221;-74
2022/12/27 10:30:42;;;;;;;5.85;5.25;;;15.20;99.90;;;;;;5072302;28;20571;-73
2022/12/27 10:33:17;;;;;;;6.03;5.53;;;15.50;99.90;;;;;;5061533;28;20217;-74
2022/12/27 10:35:47;;;;;;;6.07;5.57;;;15.60;99.90;;;;;;5057715;28;20219;-76
2022/12/27 10:38:15;;;;;;;6.05;5.43;;;15.60;99.90;;;;;;5044548;28;20248;-76
2022/12/27 10:40:51;;;;;;;5.47;4.97;;;15.60;99.90;;;;;;5064635;28;20215;-73
2022/12/27 10:43:23;;;;;;;5.50;5.05;;;15.20;99.90;;;;;;5060389;28;20222;-73
2022/12/27 10:45:51;;;;;;;5.22;4.72;;;15.00;99.90;;;;;;5065315;28;20316;-75
2022/12/27 10:48:20;;;;;;;5.95;5.43;;;14.80;99.90;;;;;;5062306;28;20209;-72
2022/12/27 10:50:53;;;;;;;5.38;4.88;;;14.50;99.90;;;;;;5064166;28;20316;-71
2022/12/27 10:53:36;;;;;;;6.75;5.18;;;14.30;99.90;;;;;;5064696;28;20211;-76
2022/12/27 10:56:13;;;;;;;5.22;4.65;;;14.30;99.90;;;;;;5063855;28;20211;-72
2022/12/27 10:58:43;;;;;;;5.47;5.05;;;14.30;99.90;;;;;;5062810;28;20222;-73
2022/12/27 11:01:22;;;;;;;5.40;4.90;;;14.20;99.90;;;;;;5059593;28;20230;-73
2022/12/27 11:03:49;;;;;;;4.38;3.97;;;14.30;99.90;;;;;;5067303;28;20226;-72
2022/12/27 11:06:24;;;;;;;4.65;4.32;;;14.30;99.90;;;;;;5063994;28;20194;-74
2022/12/27 11:08:52;;;;;;;5.50;5.00;;;14.20;99.90;;;;;;5062239;28;20225;-76
2022/12/27 11:11:22;;;;;;;5.22;4.72;;;14.40;99.90;;;;;;5064246;28;20202;-73
2022/12/27 11:13:50;;;;;;;5.32;4.93;;;14.70;99.90;;;;;;5063331;28;20389;-72
2022/12/27 11:16:25;;;;;;;5.82;5.32;;;14.90;99.90;;;;;;5063243;28;20832;-76
2022/12/27 11:18:56;;;;;;;6.43;5.82;;;15.10;99.90;;;;;;5047260;28;20221;-74
2022/12/27 11:21:26;;;;;;;6.00;5.50;;;15.30;99.90;;;;;;5061714;28;20760;-75
2022/12/27 11:23:57;;;;;;;7.57;5.65;;;15.10;99.90;;;;;;5062340;28;20222;-75
2022/12/27 11:26:27;;;;;;;6.00;5.50;;;15.00;99.90;;;;;;5060627;28;20679;-77
2022/12/27 11:29:00;;;;;;;6.40;5.60;;;15.30;99.90;;;;;;5047217;28;20221;-74
2022/12/27 11:31:34;;;;;;;6.47;5.88;;;15.50;99.90;;;;;;5042630;28;20206;-77
2022/12/27 11:34:05;;;;;;;7.13;5.35;;;15.40;99.90;;;;;;5060445;28;20222;-75
2022/12/27 11:36:37;;;;;;;5.35;4.85;;;15.60;99.90;;;;;;5061033;28;20206;-77
2022/12/27 11:39:06;;;;;;;4.40;4.00;;;15.70;99.90;;;;;;5058881;28;20214;-81
2022/12/27 11:41:48;;;;;;;4.50;4.10;;;15.70;99.90;;;;;;5064683;28;20198;-75
2022/12/27 11:44:20;;;;;;;3.72;3.42;;;15.90;99.90;;;;;;5067237;28;20230;-78
2022/12/27 11:46:51;;;;;;;3.83;3.53;;;16.10;99.90;;;;;;5063853;28;20202;-77
2022/12/27 11:49:23;;;;;;;3.65;3.28;;;16.20;99.90;;;;;;5061876;28;20290;-79
2022/12/27 11:52:02;;;;;;;4.07;3.47;;;16.30;99.90;;;;;;5061814;28;20194;-69
2022/12/27 11:54:47;;;;;;;4.63;4.20;;;16.60;99.90;;;;;;5062327;28;20229;-77
2022/12/27 11:57:27;;;;;;;5.68;5.13;;;16.40;99.90;;;;;;5064184;28;20198;-78
2022/12/27 12:00:06;;;;;;;5.45;4.95;;;16.00;99.90;;;;;;5056530;28;20265;-76
2022/12/27 12:02:52;;;;;;;5.38;4.97;;;15.30;99.90;;;;;;5060941;28;20201;-74
2022/12/27 12:05:49;;;;;;;5.15;4.75;;;15.00;99.90;;;;;;5063917;28;20698;-72
2022/12/27 12:08:49;;;;;;;6.10;5.50;;;14.70;99.90;;;;;;5062191;28;20208;-73
2022/12/27 12:11:31;;;;;;;5.65;5.07;;;14.50;99.90;;;;;;5053414;28;20253;-78
2022/12/27 12:14:34;;;;;;;5.07;4.68;;;14.80;99.90;;;;;;5062247;28;20225;-79
2022/12/27 12:17:16;;;;;;;4.88;4.28;;;15.20;99.90;;;;;;5065511;28;20190;-77
2022/12/27 12:20:10;;;;;;;4.20;3.80;;;15.80;99.90;;;;;;5061463;28;20218;-79
2022/12/27 12:22:55;;;;;;;3.95;3.65;;;16.00;99.90;;;;;;5040210;28;20575;-76
2022/12/27 12:26:05;;;;;;;4.20;3.72;;;15.80;99.90;;;;;;5060722;28;20242;-75
2022/12/27 12:28:59;;;;;;;4.13;3.55;;;15.20;99.90;;;;;;5061462;28;20202;-76
2022/12/27 12:31:52;;;;;;;4.65;4.20;;;14.90;99.90;;;;;;5054298;28;20221;-79
2022/12/27 12:34:48;;;;;;;4.30;4.00;;;14.80;99.90;;;;;;5059060;28;20688;-76
2022/12/27 12:37:30;;;;;;;4.53;4.13;;;14.80;99.90;;;;;;5053559;28;20207;-78
2022/12/27 12:40:16;;;;;;;4.60;4.10;;;14.90;99.90;;;;;;5062866;28;20206;-82
2022/12/27 12:42:56;;;;;;;4.22;3.83;;;15.10;99.90;;;;;;5058929;28;20195;-76
2022/12/27 12:45:41;;;;;;;3.65;3.35;;;15.20;99.90;;;;;;5058339;28;20631;-79
2022/12/27 12:48:31;;;;;;;4.40;3.97;;;15.30;99.90;;;;;;5023376;28;20723;-77
2022/12/27 12:51:24;;;;;;;4.05;3.75;;;15.40;99.90;;;;;;5058384;28;20754;-76
2022/12/27 12:54:03;;;;;;;4.50;4.10;;;15.30;99.90;;;;;;5059895;28;20253;-75
2022/12/27 12:56:44;;;;;;;4.57;3.80;;;15.10;99.90;;;;;;5060461;28;20287;-75
2022/12/27 12:59:27;;;;;;;4.43;4.03;;;15.20;99.90;;;;;;5048553;28;20227;-77
2022/12/27 13:02:07;;;;;;;4.63;4.22;;;15.10;99.90;;;;;;5041468;28;20202;-79
2022/12/27 13:04:52;;;;;;;4.38;4.00;;;15.10;99.90;;;;;;5056337;28;20218;-74
2022/12/27 13:07:40;;;;;;;5.13;4.70;;;14.90;99.90;;;;;;5064720;28;20198;-80
2022/12/27 13:10:44;;;;;;;4.60;4.20;;;14.60;99.90;;;;;;5052499;28;20646;-76
2022/12/27 13:13:18;;;;;;;4.03;3.63;;;14.50;99.90;;;;;;5053904;28;20841;-78
2022/12/27 13:15:56;;;;;;;4.40;3.72;;;14.50;99.90;;;;;;5059017;28;20221;-80
2022/12/27 13:18:35;;;;;;;4.85;4.45;;;14.50;99.90;;;;;;5061022;28;20217;-78
2022/12/27 13:21:19;;;;;;;4.65;4.25;;;14.50;99.90;;;;;;5058284;28;20198;-78
2022/12/27 13:24:03;;;;;;;5.05;4.55;;;14.50;99.90;;;;;;5062113;28;20614;-79
2022/12/27 13:26:43;;;;;;;5.40;4.90;;;14.30;99.90;;;;;;5058717;28;20205;-80
2022/12/27 13:29:36;;;;;;;5.18;4.70;;;14.40;99.90;;;;;;5054722;28;20298;-79
2022/12/27 13:32:11;;;;;;;5.07;4.57;;;14.30;99.90;;;;;;5063724;28;20190;-81
2022/12/27 13:34:57;;;;;;;4.70;4.10;;;14.10;99.90;;;;;;5063763;28;20336;-77
2022/12/27 13:37:36;;;;;;;4.38;3.97;;;13.90;99.90;;;;;;5060185;28;20267;-77
2022/12/27 13:40:41;;;;;;;4.55;4.15;;;13.90;99.90;;;;;;5057774;28;20225;-77
2022/12/27 13:43:47;;;;;;;4.15;3.83;;;13.60;99.90;;;;;;5058767;28;20210;-76
2022/12/27 13:46:27;;;;;;;4.50;4.00;;;13.30;99.90;;;;;;5047987;28;20221;-79
2022/12/27 13:49:07;;;;;;;4.60;4.20;;;12.80;99.90;;;;;;5062551;28;20275;-76
2022/12/27 13:51:43;;;;;;;4.03;3.70;;;12.80;99.90;;;;;;5056165;28;20309;-75
2022/12/27 13:54:47;;;;;;;4.15;3.72;;;12.90;99.90;;;;;;5062303;28;20308;-75
2022/12/27 13:57:38;;;;;;;4.93;4.43;;;12.90;99.90;;;;;;5047417;28;20206;-76
2022/12/27 14:00:16;;;;;;;4.45;4.15;;;12.70;99.90;;;;;;5058646;28;20224;-78
2022/12/27 14:03:06;;;;;;;4.10;3.38;;;12.50;99.90;;;;;;5059022;28;20267;-76
2022/12/27 14:06:02;;;;;;;3.40;3.10;;;12.50;99.90;;;;;;5061268;28;20263;-76
2022/12/27 14:09:16;;;;;;;3.63;3.33;;;12.40;99.90;;;;;;5048523;28;20656;-76
2022/12/27 14:11:55;;;;;;;3.33;3.13;;;12.40;99.90;;;;;;5063436;28;20207;-77
2022/12/27 14:14:27;;;;;;;3.40;2.80;;;12.40;99.90;;;;;;5061211;28;20287;-75
2022/12/27 14:17:17;;;;;;;3.75;3.45;;;12.40;99.90;;;;;;5064090;28;20190;-75
2022/12/27 14:20:03;;;;;;;3.20;2.95;;;12.40;99.90;;;;;;5055611;28;20222;-77
2022/12/27 14:23:18;;;;;;;2.97;2.78;;;12.30;99.90;;;;;;5068832;28;20202;-77
2022/12/27 14:26:30;;;;;;;3.20;2.92;;;12.30;99.90;;;;;;4969187;28;20263;-75
2022/12/27 14:29:28;;;;;;;2.80;2.60;;;12.20;99.90;;;;;;4969150;28;20811;-76
2022/12/27 14:32:32;;;;;;;2.97;2.78;;;12.20;99.90;;;;;;5063517;28;20280;-76
2022/12/27 14:35:27;;;;;;;2.85;2.65;;;12.10;99.90;;;;;;5045925;28;20218;-77
2022/12/27 14:38:30;;;;;;;2.80;2.60;;;12.00;99.90;;;;;;5061407;28;20201;-76
2022/12/27 14:41:26;;;;;;;2.80;2.58;;;12.00;99.90;;;;;;5046282;28;20229;-78
2022/12/27 14:44:28;;;;;;;3.08;2.78;;;12.00;99.90;;;;;;5062703;28;20230;-77
2022/12/27 14:47:19;;;;;;;3.22;3.03;;;11.80;99.90;;;;;;5063317;28;20695;-81
2022/12/27 14:50:26;;;;;;;3.70;3.40;;;11.60;99.90;;;;;;5065121;28;20218;-77
2022/12/27 14:53:34;;;;;;;3.63;3.33;;;11.40;99.90;;;;;;5044094;28;20203;-78
2022/12/27 14:56:16;;;;;;;4.10;3.75;;;11.30;99.90;;;;;;5063515;28;20217;-77
2022/12/27 14:58:59;;;;;;;3.85;3.55;;;11.10;99.90;;;;;;5062742;28;20218;-81
2022/12/27 15:01:44;;;;;;;3.85;3.22;;;11.10;99.90;;;;;;5063318;28;20198;-81
2022/12/27 15:04:46;;;;;;;3.58;2.90;;;11.10;99.90;;;;;;5064405;28;20229;-81
2022/12/27 15:07:54;;;;;;;2.97;2.78;;;11.10;99.90;;;;;;5048267;28;20209;-81